Time;durP1;ratioP1;P1;durP2;ratioP2;P2;SDS_P1;SDS_P2;PMS_P1;PMS_P2;Temp;Humidity;BMP_temperature;BMP_pressure;BME280_temperature;BME280_humidity;BME280_pressure;Samples;Min_cycle;Max_cycle;Signal;HPM_P1;HPM_P2
2022/07/05 00:02:11;;;;;;;1.55;0.30;;;21.50;73.50;;;;;;4939738;28;20036;-79
2022/07/05 00:04:36;;;;;;;0.10;0.00;;;21.50;73.00;;;;;;4937002;29;20059;-78
2022/07/05 00:07:17;;;;;;;0.00;0.00;;;21.50;73.40;;;;;;4965313;28;20119;-79
2022/07/05 00:09:52;;;;;;;0.00;0.00;;;21.40;73.60;;;;;;4936603;29;20039;-79
2022/07/05 00:12:21;;;;;;;0.00;0.00;;;21.40;73.80;;;;;;4964147;28;20035;-79
2022/07/05 00:14:48;;;;;;;0.00;0.00;;;21.40;73.80;;;;;;4966836;28;20075;-79
2022/07/05 00:17:15;;;;;;;0.00;0.00;;;21.30;74.30;;;;;;4949690;28;20031;-79
2022/07/05 00:19:42;;;;;;;0.00;0.00;;;21.40;73.90;;;;;;4936082;29;20496;-79
2022/07/05 00:22:07;;;;;;;0.00;0.00;;;21.50;74.30;;;;;;4966646;28;20019;-79
2022/07/05 00:24:33;;;;;;;0.00;0.00;;;21.50;74.00;;;;;;4953204;29;20082;-76
2022/07/05 00:27:01;;;;;;;0.00;0.00;;;21.60;74.10;;;;;;4955813;28;20491;-80
2022/07/05 00:29:27;;;;;;;0.35;0.32;;;21.50;74.20;;;;;;4969663;28;20039;-79
2022/07/05 00:31:52;;;;;;;0.00;0.00;;;21.40;73.80;;;;;;4954665;29;20106;-80
2022/07/05 00:34:18;;;;;;;0.17;0.17;;;21.40;74.30;;;;;;4955013;28;20674;-79
2022/07/05 00:36:44;;;;;;;0.00;0.00;;;21.20;75.00;;;;;;4954570;29;20041;-79
2022/07/05 00:39:10;;;;;;;0.00;0.00;;;21.20;75.10;;;;;;4965685;28;20031;-80
2022/07/05 00:41:37;;;;;;;0.00;0.00;;;21.30;74.80;;;;;;4936312;29;20492;-79
2022/07/05 00:44:10;;;;;;;1.45;1.08;;;21.40;74.60;;;;;;4965845;28;20059;-79
2022/07/05 00:46:38;;;;;;;0.00;0.00;;;21.40;75.10;;;;;;4936035;29;20562;-79
2022/07/05 00:49:05;;;;;;;2.83;0.80;;;21.30;74.60;;;;;;4944003;29;20043;-79
2022/07/05 01:02:34;;;;;;;0.00;0.00;;;20.70;76.50;;;;;;4942297;29;20082;-79
2022/07/05 01:05:00;;;;;;;0.00;0.00;;;20.60;76.40;;;;;;4967497;28;20484;-79
2022/07/05 01:07:26;;;;;;;0.00;0.00;;;20.70;77.80;;;;;;4953254;28;20023;-79
2022/07/05 01:09:52;;;;;;;0.40;0.35;;;20.70;76.90;;;;;;4954831;28;20484;-80
2022/07/05 01:12:18;;;;;;;0.32;0.20;;;20.60;77.10;;;;;;4964146;28;20498;-79
2022/07/05 01:14:44;;;;;;;0.00;0.00;;;20.60;77.20;;;;;;4936400;28;20028;-79
2022/07/05 01:17:10;;;;;;;0.00;0.00;;;20.60;77.10;;;;;;4955787;28;20547;-79
2022/07/05 01:19:38;;;;;;;0.22;0.22;;;20.60;77.50;;;;;;4968149;28;20380;-79
2022/07/05 01:22:09;;;;;;;0.70;0.35;;;20.50;77.70;;;;;;4964276;28;20027;-78
2022/07/05 01:24:35;;;;;;;0.00;0.00;;;20.40;78.10;;;;;;4979639;28;20450;-79
2022/07/05 01:27:01;;;;;;;0.10;0.03;;;20.30;78.20;;;;;;4968061;28;20038;-79
2022/07/05 01:29:27;;;;;;;0.20;0.05;;;20.20;78.90;;;;;;4953166;29;20450;-79
2022/07/05 01:31:53;;;;;;;0.00;0.00;;;20.10;79.30;;;;;;4968915;28;20055;-78
2022/07/05 01:34:19;;;;;;;0.35;0.35;;;20.00;80.00;;;;;;4952646;29;20471;-79
2022/07/05 01:36:44;;;;;;;0.10;0.05;;;20.10;80.30;;;;;;4953959;29;20035;-79
2022/07/05 01:39:10;;;;;;;0.20;0.20;;;20.00;80.40;;;;;;4954059;29;20038;-79
2022/07/05 01:41:36;;;;;;;0.00;0.00;;;20.00;80.90;;;;;;4958516;28;20042;-78
2022/07/05 01:44:04;;;;;;;0.00;0.00;;;19.90;81.30;;;;;;4953662;29;20039;-78
2022/07/05 01:46:33;;;;;;;4.13;1.13;;;20.00;81.20;;;;;;4965781;28;20127;-78
2022/07/05 01:49:05;;;;;;;1.02;0.93;;;20.10;81.40;;;;;;4964260;28;20395;-80
2022/07/05 01:51:39;;;;;;;0.00;0.00;;;20.40;80.90;;;;;;4964803;28;20050;-79
2022/07/05 01:54:05;;;;;;;0.10;0.10;;;20.40;81.00;;;;;;4965406;28;20528;-79
2022/07/05 01:56:30;;;;;;;0.20;0.10;;;20.50;80.50;;;;;;4967882;28;20062;-79
2022/07/05 01:58:59;;;;;;;0.10;0.10;;;20.50;80.60;;;;;;4963910;28;20551;-79
2022/07/05 02:01:38;;;;;;;0.00;0.00;;;20.40;80.90;;;;;;4964502;28;20032;-78
2022/07/05 02:04:08;;;;;;;0.00;0.00;;;20.10;81.70;;;;;;4964719;28;20027;-79
2022/07/05 02:06:34;;;;;;;0.00;0.00;;;19.80;82.60;;;;;;4963899;28;20040;-79
2022/07/05 02:09:01;;;;;;;0.85;0.05;;;19.60;83.70;;;;;;4964725;28;20078;-79
2022/07/05 02:11:27;;;;;;;0.00;0.00;;;19.30;85.00;;;;;;4934399;29;20055;-79
2022/07/05 02:13:53;;;;;;;2.83;1.65;;;19.20;85.70;;;;;;4949548;29;20658;-79
2022/07/05 02:16:23;;;;;;;0.57;0.28;;;19.10;86.20;;;;;;4968677;28;20031;-79
2022/07/05 02:18:49;;;;;;;0.00;0.00;;;19.00;87.10;;;;;;4968889;28;20023;-78
2022/07/05 02:21:15;;;;;;;1.10;0.80;;;19.20;86.80;;;;;;4952702;29;20079;-79
2022/07/05 02:23:40;;;;;;;0.00;0.00;;;19.40;86.10;;;;;;4952549;28;20050;-79
2022/07/05 02:26:06;;;;;;;0.00;0.00;;;19.40;85.40;;;;;;4967163;28;20062;-79
2022/07/05 02:28:32;;;;;;;0.13;0.13;;;19.40;85.50;;;;;;4967787;28;20041;-79
2022/07/05 02:30:57;;;;;;;0.52;0.15;;;19.40;85.30;;;;;;4966947;28;20114;-79
2022/07/05 02:33:23;;;;;;;0.00;0.00;;;19.20;85.70;;;;;;4942787;29;20031;-79
2022/07/05 02:35:49;;;;;;;0.00;0.00;;;19.20;86.30;;;;;;4953296;29;20031;-79
2022/07/05 02:38:14;;;;;;;0.00;0.00;;;19.30;86.30;;;;;;4952277;29;20027;-79
2022/07/05 02:40:40;;;;;;;4.47;1.67;;;19.50;86.20;;;;;;4959781;28;20488;-79
2022/07/05 02:43:06;;;;;;;0.00;0.00;;;19.50;86.30;;;;;;4952962;29;20082;-78
2022/07/05 02:45:31;;;;;;;0.10;0.08;;;19.60;85.70;;;;;;4946175;29;20032;-79
2022/07/05 02:47:57;;;;;;;0.00;0.00;;;19.50;85.80;;;;;;4950001;28;20038;-78
2022/07/05 02:50:23;;;;;;;0.00;0.00;;;19.30;85.90;;;;;;4952691;28;20098;-78
2022/07/05 02:52:49;;;;;;;0.10;0.10;;;19.20;86.60;;;;;;4963361;28;20402;-78
2022/07/05 02:55:15;;;;;;;0.00;0.00;;;19.00;87.10;;;;;;4964534;28;20039;-78
2022/07/05 02:57:40;;;;;;;0.28;0.22;;;18.90;88.00;;;;;;4936985;29;20070;-79
2022/07/05 03:00:07;;;;;;;0.00;0.00;;;18.70;88.40;;;;;;4963371;28;20036;-79
2022/07/05 03:02:33;;;;;;;0.88;0.85;;;18.40;89.70;;;;;;4935056;28;20037;-79
2022/07/05 03:04:59;;;;;;;0.00;0.00;;;18.50;90.00;;;;;;4950414;28;20035;-79
2022/07/05 03:07:24;;;;;;;0.00;0.00;;;18.40;90.20;;;;;;4954725;28;20036;-79
2022/07/05 03:09:50;;;;;;;0.25;0.25;;;18.30;90.40;;;;;;4969569;28;20446;-80
2022/07/05 03:12:16;;;;;;;0.00;0.00;;;18.10;90.90;;;;;;4962859;28;20039;-80
2022/07/05 03:14:41;;;;;;;0.00;0.00;;;18.10;91.30;;;;;;4981099;28;20054;-80
2022/07/05 03:17:07;;;;;;;3.20;0.73;;;18.10;91.30;;;;;;4965238;28;20110;-79
2022/07/05 03:19:33;;;;;;;0.10;0.10;;;18.10;91.30;;;;;;4951998;28;20062;-78
2022/07/05 03:21:59;;;;;;;1.02;0.95;;;18.00;91.40;;;;;;4951976;28;20023;-78
2022/07/05 03:24:24;;;;;;;0.25;0.25;;;18.00;91.70;;;;;;4958501;28;20711;-78
2022/07/05 03:26:50;;;;;;;0.30;0.20;;;18.00;91.80;;;;;;4972165;28;20105;-78
2022/07/05 03:29:16;;;;;;;0.00;0.00;;;18.00;91.90;;;;;;4954148;28;20035;-78
2022/07/05 03:31:42;;;;;;;0.00;0.00;;;18.00;92.10;;;;;;4951580;29;20039;-79
2022/07/05 03:34:07;;;;;;;1.88;1.38;;;18.00;92.40;;;;;;4952281;29;20031;-78
2022/07/05 03:36:33;;;;;;;0.10;0.10;;;17.90;92.60;;;;;;4951354;28;20046;-79
2022/07/05 03:38:59;;;;;;;0.00;0.00;;;17.90;92.80;;;;;;4952373;29;20070;-79
2022/07/05 03:41:24;;;;;;;1.17;0.88;;;17.80;92.90;;;;;;4971624;28;20023;-79
2022/07/05 03:43:50;;;;;;;0.00;0.00;;;17.90;92.90;;;;;;4970135;28;20483;-79
2022/07/05 03:46:16;;;;;;;0.00;0.00;;;17.70;93.10;;;;;;4955374;28;20043;-79
2022/07/05 03:48:41;;;;;;;0.10;0.10;;;17.80;93.70;;;;;;4957512;28;20130;-79
2022/07/05 03:51:07;;;;;;;0.63;0.15;;;17.80;93.50;;;;;;4955560;28;20038;-79
2022/07/05 03:53:33;;;;;;;0.10;0.10;;;17.80;93.50;;;;;;4950759;28;20083;-67
2022/07/05 03:55:59;;;;;;;0.50;0.38;;;17.80;93.70;;;;;;4965748;28;20106;-67
2022/07/05 03:58:24;;;;;;;0.00;0.00;;;17.80;94.00;;;;;;4970198;28;20033;-67
2022/07/05 04:00:50;;;;;;;0.65;0.43;;;17.90;93.90;;;;;;4969300;28;20031;-68
2022/07/05 04:03:16;;;;;;;0.00;0.00;;;17.90;94.10;;;;;;4974427;23;20053;-67
2022/07/05 04:05:41;;;;;;;0.45;0.28;;;17.90;94.20;;;;;;4966727;28;20101;-67
2022/07/05 04:08:07;;;;;;;0.00;0.00;;;17.80;94.30;;;;;;4973289;28;20034;-68
2022/07/05 04:10:33;;;;;;;3.40;0.50;;;17.70;94.70;;;;;;4974736;28;20035;-68
2022/07/05 04:12:59;;;;;;;0.15;0.15;;;17.70;95.00;;;;;;4974215;28;20031;-70
2022/07/05 04:15:24;;;;;;;0.17;0.17;;;17.80;94.90;;;;;;4978222;28;20391;-66
2022/07/05 04:17:56;;;;;;;0.03;0.03;;;17.80;94.70;;;;;;4989294;28;20050;-67
2022/07/05 04:20:24;;;;;;;0.30;0.30;;;17.70;95.00;;;;;;5005363;28;20422;-67
2022/07/05 04:22:50;;;;;;;0.10;0.10;;;17.80;94.80;;;;;;4974184;28;20030;-69
2022/07/05 04:25:17;;;;;;;0.00;0.00;;;17.90;94.80;;;;;;5008579;28;20049;-68
2022/07/05 04:27:54;;;;;;;0.25;0.25;;;17.90;94.70;;;;;;4993485;28;20026;-69
2022/07/05 04:30:23;;;;;;;0.15;0.15;;;17.90;94.70;;;;;;4993617;28;20034;-68
2022/07/05 04:32:49;;;;;;;0.80;0.63;;;17.90;94.70;;;;;;4992218;28;20088;-68
2022/07/05 04:35:16;;;;;;;0.00;0.00;;;17.90;94.90;;;;;;4991710;28;20509;-67
2022/07/05 04:37:43;;;;;;;0.30;0.30;;;18.00;94.90;;;;;;4993471;28;20393;-68
2022/07/05 04:40:12;;;;;;;0.10;0.10;;;18.20;94.70;;;;;;4992130;28;20058;-67
2022/07/05 04:42:38;;;;;;;0.22;0.22;;;18.50;94.00;;;;;;4993103;28;20049;-68
2022/07/05 04:45:05;;;;;;;0.30;0.30;;;18.80;93.20;;;;;;4992189;28;20023;-67
2022/07/05 04:47:31;;;;;;;0.20;0.20;;;18.90;93.10;;;;;;4993423;28;20093;-68
2022/07/05 04:49:57;;;;;;;0.05;0.05;;;18.80;93.10;;;;;;4991694;28;20038;-68
2022/07/05 04:52:26;;;;;;;0.00;0.00;;;18.80;93.30;;;;;;4975621;28;20105;-68
2022/07/05 04:54:52;;;;;;;0.00;0.00;;;18.60;93.30;;;;;;4992365;28;20126;-67
2022/07/05 04:57:18;;;;;;;0.00;0.00;;;18.60;93.70;;;;;;4993410;28;20030;-68
2022/07/05 04:59:44;;;;;;;0.20;0.20;;;18.40;94.10;;;;;;4991955;28;20031;-68
2022/07/05 05:02:10;;;;;;;0.20;0.20;;;18.50;94.30;;;;;;4991466;28;20120;-69
2022/07/05 05:04:36;;;;;;;0.20;0.20;;;18.50;94.30;;;;;;4975463;28;20049;-69
2022/07/05 05:07:02;;;;;;;0.00;0.00;;;18.60;93.90;;;;;;4991782;28;20034;-69
2022/07/05 05:09:28;;;;;;;0.00;0.00;;;19.10;93.00;;;;;;4992750;28;20125;-69
2022/07/05 05:11:53;;;;;;;1.02;0.80;;;19.30;92.30;;;;;;4991388;28;20113;-70
2022/07/05 05:14:19;;;;;;;0.10;0.10;;;19.50;92.00;;;;;;4992743;28;20022;-70
2022/07/05 05:16:45;;;;;;;0.73;0.38;;;19.70;91.80;;;;;;4975929;28;20030;-70
2022/07/05 05:19:11;;;;;;;0.08;0.08;;;19.60;91.90;;;;;;4988029;28;20023;-68
2022/07/05 05:21:36;;;;;;;0.22;0.22;;;19.40;92.10;;;;;;5004637;28;20038;-69
2022/07/05 05:24:02;;;;;;;0.00;0.00;;;19.30;92.20;;;;;;4979111;28;20076;-68
2022/07/05 05:26:28;;;;;;;0.10;0.10;;;19.40;92.00;;;;;;4974722;28;20034;-68
2022/07/05 05:28:54;;;;;;;0.43;0.43;;;19.80;91.40;;;;;;4992251;28;20076;-70
2022/07/05 05:31:20;;;;;;;0.00;0.00;;;19.90;91.30;;;;;;4992426;28;20037;-68
2022/07/05 05:33:46;;;;;;;4.40;2.08;;;19.90;91.30;;;;;;4990933;28;20117;-68
2022/07/05 05:36:11;;;;;;;0.00;0.00;;;20.10;90.80;;;;;;4992280;28;20084;-68
2022/07/05 05:38:38;;;;;;;0.00;0.00;;;20.10;90.60;;;;;;4992449;28;20034;-69
2022/07/05 05:41:03;;;;;;;0.10;0.00;;;20.30;90.60;;;;;;4992158;28;20033;-68
2022/07/05 05:43:29;;;;;;;0.20;0.10;;;20.30;90.70;;;;;;4991848;28;20382;-68
2022/07/05 05:45:55;;;;;;;1.55;0.75;;;20.30;90.50;;;;;;4990667;28;20045;-68
2022/07/05 05:48:21;;;;;;;0.10;0.10;;;20.40;90.30;;;;;;4992543;28;20391;-68
2022/07/05 05:50:47;;;;;;;0.52;0.30;;;20.30;90.50;;;;;;4992028;28;20113;-68
2022/07/05 05:53:13;;;;;;;0.08;0.08;;;20.20;90.70;;;;;;4990706;28;20458;-67
2022/07/05 05:55:41;;;;;;;0.00;0.00;;;20.10;90.70;;;;;;4991883;28;20038;-67
2022/07/05 05:58:15;;;;;;;0.20;0.20;;;20.00;90.90;;;;;;4992376;28;20594;-67
2022/07/05 06:00:49;;;;;;;0.05;0.05;;;20.00;91.00;;;;;;4973383;28;20026;-68
2022/07/05 06:03:16;;;;;;;11.60;1.25;;;19.90;90.90;;;;;;4971960;28;20031;-68
2022/07/05 06:05:41;;;;;;;0.00;0.00;;;19.90;91.00;;;;;;4987441;28;20119;-67
2022/07/05 06:08:07;;;;;;;0.08;0.05;;;19.90;91.20;;;;;;4987578;28;20043;-67
2022/07/05 06:10:35;;;;;;;1.30;0.57;;;19.90;91.20;;;;;;4972225;28;20038;-67
2022/07/05 06:13:05;;;;;;;0.68;0.38;;;19.90;91.30;;;;;;4986930;28;20646;-68
2022/07/05 06:15:31;;;;;;;0.03;0.03;;;20.00;90.90;;;;;;4992070;28;20589;-67
2022/07/05 06:17:57;;;;;;;0.00;0.00;;;20.00;91.00;;;;;;4990617;28;20668;-67
2022/07/05 06:20:28;;;;;;;0.45;0.30;;;20.00;91.10;;;;;;4990534;28;20041;-67
2022/07/05 06:22:54;;;;;;;0.25;0.05;;;20.10;90.80;;;;;;4965156;28;20032;-67
2022/07/05 06:25:21;;;;;;;0.00;0.00;;;20.30;90.90;;;;;;4970594;28;20070;-68
2022/07/05 06:27:50;;;;;;;0.20;0.20;;;20.50;89.90;;;;;;4970534;28;20035;-67
2022/07/05 06:30:19;;;;;;;0.52;0.40;;;20.40;89.70;;;;;;4972152;28;20037;-67
2022/07/05 06:32:46;;;;;;;0.03;0.00;;;20.50;90.00;;;;;;4971579;28;20023;-67
2022/07/05 06:35:13;;;;;;;0.00;0.00;;;20.70;89.90;;;;;;4970780;28;20038;-67
2022/07/05 06:37:51;;;;;;;0.00;0.00;;;20.80;89.80;;;;;;4970700;28;20038;-67
2022/07/05 06:40:25;;;;;;;0.00;0.00;;;20.90;89.30;;;;;;4971843;28;20265;-66
2022/07/05 06:42:53;;;;;;;0.28;0.22;;;21.10;89.20;;;;;;4970646;28;20475;-67
2022/07/05 06:45:19;;;;;;;0.20;0.13;;;21.30;88.20;;;;;;4972475;28;20035;-67
2022/07/05 06:47:54;;;;;;;0.10;0.10;;;21.40;88.00;;;;;;4971785;28;20499;-67
2022/07/05 06:50:20;;;;;;;9.95;0.35;;;21.40;87.40;;;;;;4970887;28;20037;-67
2022/07/05 06:52:45;;;;;;;0.00;0.00;;;21.30;86.90;;;;;;4971607;28;20026;-67
2022/07/05 06:55:11;;;;;;;0.22;0.10;;;21.30;87.70;;;;;;4987158;28;20033;-67
2022/07/05 06:57:37;;;;;;;0.00;0.00;;;21.40;87.80;;;;;;4991587;28;20049;-68
2022/07/05 07:00:04;;;;;;;0.00;0.00;;;21.40;87.50;;;;;;4990053;28;20679;-67
2022/07/05 07:02:30;;;;;;;0.00;0.00;;;21.40;86.50;;;;;;4989619;28;20509;-67
2022/07/05 07:04:56;;;;;;;0.32;0.30;;;21.50;86.90;;;;;;4990225;28;20034;-68
2022/07/05 07:10:06;;;;;;;0.00;0.00;;;21.50;86.90;;;;;;4990943;28;20757;-67
2022/07/05 07:12:32;;;;;;;0.10;0.10;;;21.70;86.90;;;;;;4990153;28;20038;-67
2022/07/05 07:14:58;;;;;;;0.00;0.00;;;21.70;86.80;;;;;;4991415;28;20033;-67
2022/07/05 07:17:24;;;;;;;0.10;0.10;;;21.80;85.80;;;;;;4993170;28;20031;-68
2022/07/05 07:19:50;;;;;;;0.00;0.00;;;21.70;86.20;;;;;;4993510;28;20036;-67
2022/07/05 07:22:16;;;;;;;0.10;0.10;;;21.80;86.50;;;;;;4994508;28;20026;-67
2022/07/05 07:24:42;;;;;;;0.00;0.00;;;21.80;86.50;;;;;;4994818;28;20041;-68
2022/07/05 07:27:08;;;;;;;0.22;0.22;;;21.80;86.20;;;;;;4994797;28;20034;-68
2022/07/05 07:29:39;;;;;;;0.10;0.10;;;21.90;86.10;;;;;;4994901;28;20117;-68
2022/07/05 07:32:07;;;;;;;0.00;0.00;;;22.00;86.20;;;;;;4994662;28;20038;-68
2022/07/05 07:34:34;;;;;;;0.10;0.10;;;22.20;85.40;;;;;;4993129;28;20398;-69
2022/07/05 07:37:00;;;;;;;3.35;1.13;;;22.30;84.30;;;;;;4993306;28;20065;-68
2022/07/05 07:39:26;;;;;;;0.00;0.00;;;22.40;84.30;;;;;;4989235;28;20027;-68
2022/07/05 07:41:52;;;;;;;0.47;0.13;;;22.40;84.10;;;;;;4991260;28;20109;-68
2022/07/05 07:44:19;;;;;;;0.05;0.03;;;22.50;83.90;;;;;;4992969;28;20418;-68
2022/07/05 07:46:46;;;;;;;0.10;0.08;;;22.70;82.60;;;;;;4993058;28;20406;-68
2022/07/05 07:49:12;;;;;;;0.43;0.40;;;22.70;82.40;;;;;;4993314;28;20038;-68
2022/07/05 07:51:39;;;;;;;0.00;0.00;;;22.80;82.30;;;;;;4985409;28;20045;-68
2022/07/05 07:54:05;;;;;;;0.00;0.00;;;22.80;82.10;;;;;;4982470;28;20033;-68
2022/07/05 07:56:31;;;;;;;0.20;0.20;;;22.80;81.40;;;;;;4973533;28;20043;-67
2022/07/05 07:58:59;;;;;;;0.10;0.08;;;22.80;81.00;;;;;;4972991;28;20520;-67
2022/07/05 08:01:25;;;;;;;0.20;0.20;;;22.80;81.50;;;;;;4974514;28;20031;-68
2022/07/05 08:03:51;;;;;;;0.00;0.00;;;22.90;81.80;;;;;;4957755;28;20435;-69
2022/07/05 08:06:17;;;;;;;0.00;0.00;;;23.00;82.30;;;;;;4973559;28;20034;-68
2022/07/05 08:08:45;;;;;;;0.00;0.00;;;23.20;81.70;;;;;;4974417;28;20037;-68
2022/07/05 08:11:12;;;;;;;0.10;0.10;;;23.30;80.20;;;;;;4974682;28;20038;-68
2022/07/05 08:13:42;;;;;;;0.10;0.10;;;23.20;80.00;;;;;;4974390;28;20104;-68
2022/07/05 08:16:10;;;;;;;0.00;0.00;;;23.40;82.10;;;;;;4979312;28;20117;-68
2022/07/05 08:21:32;;;;;;;0.10;0.10;;;23.50;80.70;;;;;;4993977;28;20030;-68
2022/07/05 08:24:11;;;;;;;0.00;0.00;;;23.60;78.10;;;;;;4993187;28;20026;-67
2022/07/05 08:26:38;;;;;;;0.00;0.00;;;23.50;78.60;;;;;;4984372;28;20027;-67
2022/07/05 08:29:08;;;;;;;0.10;0.03;;;23.60;79.10;;;;;;4971688;28;20027;-67
2022/07/05 08:31:49;;;;;;;0.52;0.52;;;23.70;77.90;;;;;;4973165;28;20445;-67
2022/07/05 08:34:17;;;;;;;1.17;1.08;;;23.70;78.40;;;;;;4982895;28;20386;-67
2022/07/05 08:36:43;;;;;;;0.10;0.10;;;23.60;78.40;;;;;;4991939;28;20574;-68
2022/07/05 08:39:09;;;;;;;0.03;0.03;;;23.80;77.70;;;;;;4988397;28;20097;-67
2022/07/05 08:41:40;;;;;;;0.65;0.40;;;23.90;76.20;;;;;;4982988;28;20485;-68
2022/07/05 08:44:07;;;;;;;0.35;0.30;;;24.10;78.00;;;;;;4989908;28;20030;-68
2022/07/05 08:46:37;;;;;;;1.65;1.20;;;24.00;77.80;;;;;;4992114;28;20061;-69
2022/07/05 08:49:05;;;;;;;1.63;0.77;;;24.20;76.60;;;;;;4970507;28;20390;-68
2022/07/05 08:51:37;;;;;;;0.00;0.00;;;24.30;76.30;;;;;;4972352;28;20026;-66
2022/07/05 08:54:03;;;;;;;0.00;0.00;;;24.40;76.20;;;;;;4978470;28;20137;-67
2022/07/05 08:56:29;;;;;;;0.57;0.30;;;24.50;75.90;;;;;;4991865;28;20027;-66
2022/07/05 08:58:56;;;;;;;0.15;0.15;;;24.60;74.80;;;;;;4982318;28;20026;-67
2022/07/05 09:01:24;;;;;;;0.00;0.00;;;24.70;74.10;;;;;;4972478;28;20026;-68
2022/07/05 09:03:51;;;;;;;0.30;0.20;;;24.70;72.90;;;;;;4971693;28;20451;-68
2022/07/05 09:06:28;;;;;;;0.00;0.00;;;24.70;73.30;;;;;;4972012;28;20084;-68
2022/07/05 09:08:59;;;;;;;0.00;0.00;;;24.90;73.60;;;;;;4971998;28;20522;-68
2022/07/05 09:11:39;;;;;;;0.32;0.32;;;24.90;73.50;;;;;;4972297;28;20402;-67
2022/07/05 09:14:18;;;;;;;1.20;0.38;;;24.90;74.80;;;;;;4973266;28;20161;-68
2022/07/05 09:16:43;;;;;;;0.15;0.10;;;25.00;74.30;;;;;;5001342;28;20826;-66
2022/07/05 09:19:09;;;;;;;0.00;0.00;;;25.10;73.00;;;;;;4991317;28;20034;-67
2022/07/05 09:21:36;;;;;;;0.00;0.00;;;25.20;70.10;;;;;;4992498;28;20483;-67
2022/07/05 09:24:08;;;;;;;0.00;0.00;;;25.30;69.80;;;;;;4983851;28;20026;-67
2022/07/05 09:26:48;;;;;;;0.20;0.20;;;25.10;69.80;;;;;;4971201;28;20042;-67
2022/07/05 09:29:21;;;;;;;0.32;0.28;;;24.80;70.80;;;;;;4972878;28;20027;-67
2022/07/05 09:31:50;;;;;;;0.00;0.00;;;24.70;70.60;;;;;;4971993;28;20437;-68
2022/07/05 09:34:19;;;;;;;0.00;0.00;;;24.90;70.80;;;;;;4988214;28;20084;-67
2022/07/05 09:36:58;;;;;;;0.00;0.00;;;25.00;72.20;;;;;;4973976;28;20030;-68
2022/07/05 09:39:30;;;;;;;0.00;0.00;;;25.10;70.50;;;;;;4991388;28;20034;-67
2022/07/05 09:42:23;;;;;;;0.00;0.00;;;25.30;70.80;;;;;;4977181;28;20035;-68
2022/07/05 09:44:52;;;;;;;0.00;0.00;;;25.50;70.80;;;;;;4972724;28;20073;-68
2022/07/05 09:47:24;;;;;;;0.00;0.00;;;25.60;70.50;;;;;;5003924;28;20030;-68
2022/07/05 09:49:56;;;;;;;0.15;0.13;;;25.70;70.60;;;;;;5002486;28;20031;-69
2022/07/05 09:52:37;;;;;;;0.00;0.00;;;25.70;68.80;;;;;;5006488;28;20367;-70
2022/07/05 09:55:08;;;;;;;;;;;25.90;69.40;;;;;;4977179;28;20110;-69
2022/07/05 09:57:41;;;;;;;1.55;1.08;;;26.00;67.90;;;;;;4971561;28;20034;-69
2022/07/05 10:00:14;;;;;;;0.03;0.03;;;25.80;69.00;;;;;;4972668;28;20027;-69
2022/07/05 10:02:42;;;;;;;0.00;0.00;;;26.00;70.70;;;;;;4981711;23;20402;-67
2022/07/05 10:05:17;;;;;;;0.05;0.05;;;26.00;69.90;;;;;;4963221;28;20069;-69
2022/07/05 10:07:54;;;;;;;1.85;0.47;;;26.10;68.90;;;;;;4952040;29;20027;-69
2022/07/05 10:10:26;;;;;;;0.20;0.10;;;26.10;68.80;;;;;;4952835;28;20027;-68
2022/07/05 10:12:57;;;;;;;0.00;0.00;;;26.20;69.60;;;;;;4953091;28;20118;-68
2022/07/05 10:15:36;;;;;;;0.10;0.10;;;26.30;69.10;;;;;;4957271;28;20026;-68
2022/07/05 10:18:12;;;;;;;2.22;1.02;;;26.20;68.60;;;;;;4972463;28;20368;-68
2022/07/05 10:20:40;;;;;;;0.05;0.03;;;26.20;69.00;;;;;;4971959;28;20022;-68
2022/07/05 10:23:18;;;;;;;0.00;0.00;;;26.10;69.40;;;;;;4971946;28;20034;-69
2022/07/05 10:25:49;;;;;;;0.30;0.30;;;26.10;69.70;;;;;;4972070;28;20431;-70
2022/07/05 10:28:17;;;;;;;0.00;0.00;;;26.00;69.40;;;;;;4970974;28;20031;-71
2022/07/05 10:30:51;;;;;;;0.40;0.40;;;26.30;69.00;;;;;;4972003;28;20022;-70
2022/07/05 10:33:25;;;;;;;0.00;0.00;;;26.50;68.50;;;;;;4971932;28;20031;-69
2022/07/05 10:35:51;;;;;;;0.00;0.00;;;26.40;68.10;;;;;;4971049;28;20794;-70
2022/07/05 10:38:17;;;;;;;0.80;0.28;;;26.30;68.40;;;;;;4970214;28;20061;-70
2022/07/05 10:40:52;;;;;;;0.43;0.22;;;26.30;68.50;;;;;;4971087;28;20041;-70
2022/07/05 10:43:22;;;;;;;0.28;0.13;;;26.60;68.70;;;;;;4971939;28;20099;-69
2022/07/05 10:45:50;;;;;;;0.17;0.17;;;26.80;68.70;;;;;;4971116;28;20037;-69
2022/07/05 10:48:23;;;;;;;0.00;0.00;;;27.00;67.80;;;;;;4970671;28;20359;-71
2022/07/05 10:51:16;;;;;;;0.63;0.47;;;27.20;67.90;;;;;;4971767;28;20121;-71
2022/07/05 10:53:41;;;;;;;0.13;0.10;;;27.30;66.20;;;;;;4974676;28;20085;-73
2022/07/05 10:56:07;;;;;;;0.10;0.10;;;27.20;66.60;;;;;;4975706;28;20062;-73
2022/07/05 10:58:46;;;;;;;0.10;0.10;;;27.50;66.90;;;;;;4975668;28;20038;-71
2022/07/05 11:01:12;;;;;;;0.10;0.10;;;27.70;65.90;;;;;;4975806;28;20042;-74
2022/07/05 11:03:39;;;;;;;0.10;0.08;;;28.00;66.30;;;;;;4973162;28;20031;-69
2022/07/05 11:06:07;;;;;;;1.20;0.68;;;27.90;66.00;;;;;;4968386;28;20104;-70
2022/07/05 11:08:58;;;;;;;0.10;0.00;;;27.80;65.40;;;;;;4969156;28;20372;-70
2022/07/05 11:11:45;;;;;;;0.00;0.00;;;27.80;64.20;;;;;;4961051;28;20592;-70
2022/07/05 11:14:20;;;;;;;0.00;0.00;;;27.60;64.20;;;;;;4960820;28;20030;-70
2022/07/05 11:16:47;;;;;;;0.20;0.10;;;27.70;65.20;;;;;;4974218;28;20030;-71
2022/07/05 11:19:20;;;;;;;4.22;1.20;;;28.00;65.20;;;;;;4938489;29;20078;-70
2022/07/05 11:22:06;;;;;;;0.00;0.00;;;28.00;64.90;;;;;;4959803;28;20114;-72
2022/07/05 11:24:36;;;;;;;0.00;0.00;;;28.10;64.50;;;;;;4946289;28;20039;-72
2022/07/05 11:27:09;;;;;;;1.33;1.10;;;27.90;63.50;;;;;;4968392;28;20384;-72
2022/07/05 11:29:53;;;;;;;0.00;0.00;;;27.90;64.60;;;;;;4977690;28;20089;-72
2022/07/05 11:32:37;;;;;;;0.00;0.00;;;28.40;63.20;;;;;;4968363;28;20125;-72
2022/07/05 11:35:19;;;;;;;0.03;0.03;;;28.30;60.50;;;;;;4961001;28;20390;-72
2022/07/05 11:38:07;;;;;;;0.00;0.00;;;28.30;59.70;;;;;;4966617;28;20035;-72
2022/07/05 11:40:40;;;;;;;0.22;0.22;;;28.30;61.80;;;;;;4967083;28;20030;-72
2022/07/05 11:43:08;;;;;;;0.00;0.00;;;28.70;62.60;;;;;;4973809;28;20086;-72
2022/07/05 11:45:34;;;;;;;0.30;0.30;;;28.70;62.50;;;;;;4954925;28;20062;-71
2022/07/05 11:48:03;;;;;;;0.00;0.00;;;28.80;61.70;;;;;;4955122;28;20028;-72
2022/07/05 11:50:34;;;;;;;0.00;0.00;;;28.80;62.00;;;;;;4969103;28;20497;-72
2022/07/05 11:53:01;;;;;;;0.00;0.00;;;28.90;61.70;;;;;;4968048;28;20031;-72
2022/07/05 11:55:29;;;;;;;0.00;0.00;;;28.40;62.10;;;;;;4967005;28;20030;-72
2022/07/05 11:57:57;;;;;;;1.27;0.40;;;28.60;61.90;;;;;;4972068;28;20035;-73
2022/07/05 12:00:40;;;;;;;0.10;0.10;;;28.70;60.40;;;;;;4969862;28;20037;-72
2022/07/05 12:03:14;;;;;;;0.05;0.05;;;28.50;60.50;;;;;;4964641;28;20130;-72
2022/07/05 12:05:42;;;;;;;0.00;0.00;;;28.60;60.30;;;;;;4976303;28;20039;-72
2022/07/05 12:08:09;;;;;;;1.70;1.05;;;28.60;60.00;;;;;;4972837;28;20035;-72
2022/07/05 12:13:20;;;;;;;0.10;0.10;;;28.90;60.20;;;;;;4972838;28;20041;-72
2022/07/05 12:15:46;;;;;;;0.10;0.10;;;29.10;59.20;;;;;;4965444;28;20040;-72
2022/07/05 12:18:12;;;;;;;0.00;0.00;;;29.60;58.20;;;;;;4954714;28;20656;-72
2022/07/05 12:20:39;;;;;;;0.60;0.32;;;29.50;56.90;;;;;;4968938;28;20031;-72
2022/07/05 12:23:07;;;;;;;0.00;0.00;;;28.90;57.20;;;;;;4968351;28;20035;-72
2022/07/05 12:25:34;;;;;;;0.00;0.00;;;28.40;58.40;;;;;;4981013;28;20022;-73
2022/07/05 12:28:05;;;;;;;0.00;0.00;;;28.30;57.80;;;;;;4967590;28;20122;-72
2022/07/05 12:30:32;;;;;;;0.55;0.55;;;28.20;58.30;;;;;;4958037;28;20046;-72
2022/07/05 12:33:03;;;;;;;0.00;0.00;;;28.10;58.30;;;;;;4954221;28;20471;-73
2022/07/05 12:35:40;;;;;;;0.22;0.22;;;28.10;60.00;;;;;;4961191;28;20027;-73
2022/07/05 12:38:19;;;;;;;0.28;0.28;;;28.70;59.20;;;;;;4973983;28;20027;-72
2022/07/05 12:40:59;;;;;;;0.00;0.00;;;29.20;59.20;;;;;;4961848;28;20031;-72
2022/07/05 12:43:25;;;;;;;0.57;0.32;;;29.50;58.30;;;;;;4972789;28;20031;-72
2022/07/05 12:46:07;;;;;;;0.00;0.00;;;29.70;58.20;;;;;;4965025;28;20251;-72
2022/07/05 12:48:36;;;;;;;0.10;0.10;;;29.80;57.30;;;;;;4970589;28;20038;-72
2022/07/05 12:51:03;;;;;;;0.10;0.10;;;30.10;56.80;;;;;;4965903;28;20138;-72
2022/07/05 12:59:18;;;;;;;0.63;0.25;;;29.70;56.60;;;;;;4912917;29;20469;-75
2022/07/05 13:01:44;;;;;;;0.15;0.15;;;29.70;57.00;;;;;;4944746;28;20118;-76
2022/07/05 13:04:16;;;;;;;0.65;0.40;;;29.40;56.70;;;;;;4969226;28;20170;-77
2022/07/05 13:07:02;;;;;;;0.00;0.00;;;29.80;56.30;;;;;;4968373;28;20074;-77
2022/07/05 13:09:30;;;;;;;0.20;0.20;;;29.90;56.90;;;;;;4973341;28;20073;-77
2022/07/05 13:12:20;;;;;;;0.00;0.00;;;29.80;55.40;;;;;;4959741;28;20668;-77
2022/07/05 13:14:53;;;;;;;0.25;0.25;;;29.10;55.60;;;;;;4971549;28;20043;-75
2022/07/05 13:17:22;;;;;;;0.30;0.30;;;29.30;56.80;;;;;;4957680;28;20042;-76
2022/07/05 13:19:51;;;;;;;0.00;0.00;;;29.40;55.50;;;;;;4959263;28;20394;-75
2022/07/05 13:22:17;;;;;;;0.00;0.00;;;29.40;56.50;;;;;;4965242;28;20038;-76